createdAt,value
2022-07-29T04:31:00.856Z,16.88
2022-07-29T04:32:00.678Z,16.88
2022-07-29T04:33:00.668Z,16.88
2022-07-29T04:34:00.667Z,16.88
2022-07-29T04:35:00.644Z,16.88
2022-07-29T04:36:00.625Z,16.88
2022-07-29T04:37:00.614Z,16.88
2022-07-29T04:38:00.596Z,16.88
2022-07-29T04:39:00.596Z,22.50
2022-07-29T04:40:00.575Z,22.50
2022-07-29T04:41:00.565Z,22.50
2022-07-29T04:42:00.543Z,22.50
2022-07-29T04:43:00.599Z,22.50
2022-07-29T04:44:07.604Z,22.50
2022-07-29T04:45:01.292Z,22.50
2022-07-29T04:46:00.509Z,22.50
2022-07-29T04:47:00.485Z,22.50
2022-07-29T04:48:00.467Z,22.50
2022-07-29T04:49:00.612Z,22.50
2022-07-29T04:50:00.444Z,22.50
2022-07-29T04:51:00.443Z,22.50
2022-07-29T04:52:00.470Z,22.50
2022-07-29T04:53:00.418Z,22.50
2022-07-29T04:54:00.421Z,22.50
2022-07-29T04:55:00.387Z,22.50
2022-07-29T04:56:00.391Z,22.50
2022-07-29T04:57:00.356Z,22.50
2022-07-29T04:58:00.335Z,22.50
2022-07-29T04:59:00.336Z,22.50
2022-07-29T05:00:00.325Z,22.50
2022-07-29T05:01:00.308Z,28.12
2022-07-29T05:02:00.344Z,28.12
2022-07-29T05:03:00.406Z,28.12
2022-07-29T05:04:00.801Z,28.12
2022-07-29T05:05:00.254Z,33.75
2022-07-29T05:06:00.235Z,33.75
2022-07-29T05:07:00.227Z,33.75
2022-07-29T05:08:00.216Z,33.75
2022-07-29T05:09:00.217Z,33.75
2022-07-29T05:10:00.212Z,33.75
2022-07-29T05:11:11.663Z,33.75
2022-07-29T05:12:01.164Z,33.75
2022-07-29T05:13:00.145Z,33.75
2022-07-29T05:14:00.185Z,39.38
2022-07-29T05:15:00.136Z,39.38
2022-07-29T05:16:00.187Z,39.38
2022-07-29T05:17:00.093Z,45.00
2022-07-29T05:18:00.085Z,45.00
2022-07-29T05:19:00.054Z,45.00
2022-07-29T05:20:00.061Z,45.00
2022-07-29T05:21:00.045Z,50.62
2022-07-29T05:22:00.025Z,50.62
2022-07-29T05:23:00.004Z,50.62
2022-07-29T05:23:59.985Z,50.62
2022-07-29T05:25:01.461Z,45.00
2022-07-29T05:25:59.967Z,45.00
2022-07-29T05:26:59.954Z,45.00
2022-07-29T05:27:59.975Z,39.38
2022-07-29T05:28:59.924Z,39.38
2022-07-29T05:29:59.956Z,33.75
2022-07-29T05:30:59.971Z,33.75
2022-07-29T05:31:59.874Z,33.75
2022-07-29T05:32:59.871Z,33.75
2022-07-29T05:33:59.854Z,33.75
2022-07-29T05:34:59.860Z,33.75
2022-07-29T05:36:00.747Z,39.38
2022-07-29T05:36:59.812Z,39.38
2022-07-29T05:37:59.803Z,39.38
2022-07-29T05:38:59.793Z,45.00
2022-07-29T05:39:59.793Z,50.62
2022-07-29T05:40:59.783Z,50.62
2022-07-29T05:41:59.744Z,56.25
2022-07-29T05:42:59.746Z,56.25
2022-07-29T05:43:59.722Z,61.88
2022-07-29T05:44:59.714Z,61.88
2022-07-29T05:45:59.736Z,61.88
2022-07-29T05:46:59.677Z,61.88
2022-07-29T05:47:59.684Z,61.88
2022-07-29T05:48:59.692Z,67.50
2022-07-29T05:49:59.654Z,67.50
2022-07-29T05:50:59.653Z,67.50
2022-07-29T05:51:59.626Z,67.50
2022-07-29T05:52:59.593Z,67.50
2022-07-29T05:54:00.584Z,73.12
2022-07-29T05:54:59.574Z,73.12
2022-07-29T05:55:59.556Z,73.12
2022-07-29T05:56:59.591Z,73.12
2022-07-29T05:57:59.602Z,73.12
2022-07-29T05:58:59.514Z,73.12
2022-07-29T05:59:59.524Z,73.12
2022-07-29T06:00:59.534Z,73.12
2022-07-29T06:01:59.548Z,73.12
2022-07-29T06:02:59.483Z,67.50
2022-07-29T06:03:59.493Z,67.50
2022-07-29T06:04:59.492Z,67.50
2022-07-29T06:05:59.422Z,61.88
2022-07-29T06:06:59.403Z,61.88
2022-07-29T06:07:59.404Z,61.88
2022-07-29T06:08:59.383Z,56.25
2022-07-29T06:10:00.383Z,56.25
2022-07-29T06:10:59.355Z,61.88
2022-07-29T06:11:59.424Z,67.50
2022-07-29T06:12:59.324Z,56.25
2022-07-29T06:13:59.326Z,56.25
2022-07-29T06:14:59.314Z,56.25
2022-07-29T06:15:59.356Z,56.25
2022-07-29T06:16:59.274Z,56.25
2022-07-29T06:18:01.501Z,56.25
2022-07-29T06:18:59.252Z,61.88
2022-07-29T06:19:59.246Z,67.50
2022-07-29T06:20:59.257Z,61.88
2022-07-29T06:21:59.212Z,61.88
2022-07-29T06:22:59.247Z,61.88
2022-07-29T06:23:59.186Z,61.88
2022-07-29T06:24:59.186Z,61.88
2022-07-29T06:25:59.155Z,61.88
2022-07-29T06:26:59.209Z,67.50
2022-07-29T06:27:59.132Z,67.50
2022-07-29T06:28:59.112Z,73.12
2022-07-29T06:29:59.131Z,73.12
2022-07-29T06:30:59.186Z,78.75
2022-07-29T06:31:59.092Z,78.75
2022-07-29T06:32:59.269Z,84.38
2022-07-29T06:33:59.117Z,84.38
2022-07-29T06:35:24.464Z,84.38
2022-07-29T06:36:00.032Z,84.38
2022-07-29T06:36:59.005Z,84.38
2022-07-29T06:37:59.842Z,84.38
2022-07-29T06:38:58.983Z,84.38
2022-07-29T06:39:59.634Z,90.00
2022-07-29T06:40:58.953Z,101.25
2022-07-29T06:41:58.954Z,106.88
2022-07-29T06:42:58.931Z,112.50
2022-07-29T06:43:58.924Z,112.50
2022-07-29T06:44:58.913Z,118.12
2022-07-29T06:45:58.948Z,112.50
2022-07-29T06:46:58.888Z,112.50
2022-07-29T06:47:58.873Z,106.88
2022-07-29T06:48:58.892Z,106.88
2022-07-29T06:49:58.862Z,106.88
2022-07-29T06:50:58.823Z,106.88
2022-07-29T06:51:58.812Z,106.88
2022-07-29T06:52:58.825Z,106.88
2022-07-29T06:54:02.850Z,112.50
2022-07-29T06:54:58.773Z,112.50
2022-07-29T06:55:58.781Z,118.12
2022-07-29T06:56:58.742Z,118.12
2022-07-29T06:57:58.735Z,118.12
2022-07-29T06:58:58.732Z,118.12
2022-07-29T06:59:58.710Z,118.12
2022-07-29T07:00:58.734Z,112.50
2022-07-29T07:01:58.732Z,112.50
2022-07-29T07:02:58.663Z,106.88
2022-07-29T07:03:58.660Z,106.88
2022-07-29T07:04:58.642Z,101.25
2022-07-29T07:05:58.642Z,101.25
2022-07-29T07:06:58.612Z,95.62
2022-07-29T07:07:58.646Z,90.00
2022-07-29T07:08:58.589Z,84.38
2022-07-29T07:09:58.581Z,78.75
2022-07-29T07:10:58.582Z,73.12
2022-07-29T07:11:58.572Z,73.12
2022-07-29T07:12:58.532Z,73.12
2022-07-29T07:14:03.041Z,67.50
2022-07-29T07:14:59.534Z,67.50
2022-07-29T07:15:58.525Z,73.12
2022-07-29T07:16:58.514Z,73.12
2022-07-29T07:17:58.470Z,73.12
2022-07-29T07:18:58.456Z,67.50
2022-07-29T07:19:58.442Z,67.50
2022-07-29T07:20:58.431Z,67.50
2022-07-29T07:21:58.411Z,67.50
2022-07-29T07:22:58.400Z,73.12
2022-07-29T07:23:58.396Z,73.12
2022-07-29T07:24:58.373Z,73.12
2022-07-29T07:25:58.373Z,78.75
2022-07-29T07:26:58.341Z,78.75
2022-07-29T07:27:58.337Z,84.38
2022-07-29T07:28:58.332Z,90.00
2022-07-29T07:29:58.319Z,90.00
2022-07-29T07:30:58.302Z,95.62
2022-07-29T07:32:00.912Z,95.62
2022-07-29T07:32:58.261Z,101.25
2022-07-29T07:33:58.266Z,106.88
2022-07-29T07:34:58.241Z,106.88
2022-07-29T07:35:58.242Z,112.50
2022-07-29T07:36:58.216Z,112.50
2022-07-29T07:37:58.202Z,118.12
2022-07-29T07:38:58.188Z,118.12
2022-07-29T07:39:58.184Z,112.50
2022-07-29T07:40:58.171Z,112.50
2022-07-29T07:41:58.151Z,112.50
2022-07-29T07:42:58.137Z,112.50
2022-07-29T07:43:58.123Z,112.50
2022-07-29T07:45:13.109Z,112.50
2022-07-29T07:45:59.188Z,112.50
2022-07-29T07:46:58.090Z,118.12
2022-07-29T07:47:59.072Z,118.12
2022-07-29T07:48:58.082Z,118.12
2022-07-29T07:49:58.053Z,118.12
2022-07-29T07:50:58.051Z,118.12
2022-07-29T07:51:58.011Z,118.12
2022-07-29T07:52:58.003Z,118.12
2022-07-29T07:53:57.993Z,112.50
2022-07-29T07:54:57.981Z,112.50
2022-07-29T07:56:10.354Z,106.88
2022-07-29T07:56:58.956Z,101.25
2022-07-29T07:57:57.932Z,95.62
2022-07-29T07:58:57.931Z,95.62
2022-07-29T07:59:57.903Z,90.00
2022-07-29T08:00:57.984Z,90.00
2022-07-29T08:01:58.011Z,90.00
2022-07-29T08:02:57.911Z,90.00
2022-07-29T08:03:57.851Z,90.00
2022-07-29T08:04:57.846Z,90.00
2022-07-29T08:05:57.842Z,90.00
2022-07-29T08:06:57.837Z,90.00
2022-07-29T08:07:57.802Z,90.00
2022-07-29T08:09:19.492Z,84.38
2022-07-29T08:09:58.772Z,84.38
2022-07-29T08:10:57.772Z,84.38
2022-07-29T08:11:57.793Z,84.38
2022-07-29T08:12:57.756Z,78.75
2022-07-29T08:13:57.727Z,78.75
2022-07-29T08:14:57.712Z,73.12
2022-07-29T08:15:57.712Z,73.12
2022-07-29T08:16:57.705Z,73.12
2022-07-29T08:17:57.670Z,73.12
2022-07-29T08:18:57.664Z,67.50
2022-07-29T08:19:57.652Z,67.50
2022-07-29T08:20:57.669Z,67.50
2022-07-29T08:21:57.641Z,67.50
2022-07-29T08:22:57.622Z,67.50
2022-07-29T08:24:00.662Z,67.50
2022-07-29T08:24:58.581Z,73.12
2022-07-29T08:25:57.586Z,73.12
2022-07-29T08:26:57.554Z,78.75
2022-07-29T08:27:57.543Z,78.75
2022-07-29T08:28:57.547Z,84.38
2022-07-29T08:29:57.514Z,90.00
2022-07-29T08:30:57.512Z,90.00
2022-07-29T08:31:57.525Z,95.62
2022-07-29T08:32:57.519Z,106.88
2022-07-29T08:33:57.512Z,112.50
2022-07-29T08:34:57.452Z,123.75
2022-07-29T08:35:57.462Z,129.38
2022-07-29T08:36:57.422Z,135.00
2022-07-29T08:37:57.409Z,146.25
2022-07-29T08:38:57.402Z,151.88
2022-07-29T08:39:57.403Z,163.12
2022-07-29T08:40:57.422Z,168.75
2022-07-29T08:41:57.764Z,168.75
2022-07-29T08:42:57.340Z,168.75
2022-07-29T08:43:57.322Z,168.75
2022-07-29T08:44:57.312Z,168.75
2022-07-29T08:45:57.349Z,168.75
2022-07-29T08:46:57.285Z,168.75
2022-07-29T08:47:57.272Z,168.75
2022-07-29T08:48:57.286Z,168.75
2022-07-29T08:49:57.244Z,168.75
2022-07-29T08:50:57.255Z,168.75
2022-07-29T08:51:57.519Z,174.38
2022-07-29T08:52:59.867Z,180.00
2022-07-29T08:53:57.193Z,180.00
2022-07-29T08:54:57.181Z,180.00
2022-07-29T08:55:57.183Z,180.00
2022-07-29T08:56:57.172Z,185.62
2022-07-29T08:57:57.419Z,185.62
2022-07-29T08:58:57.133Z,185.62
2022-07-29T08:59:57.123Z,185.62
2022-07-29T09:00:58.150Z,185.62
2022-07-29T09:01:57.343Z,180.00
2022-07-29T09:02:57.081Z,174.38
2022-07-29T09:03:57.092Z,168.75
2022-07-29T09:04:57.053Z,163.12
2022-07-29T09:05:57.042Z,163.12
2022-07-29T09:06:57.023Z,163.12
2022-07-29T09:07:57.012Z,163.12
2022-07-29T09:08:57.001Z,163.12
2022-07-29T09:09:56.980Z,163.12
2022-07-29T09:10:56.984Z,163.12
2022-07-29T09:11:57.417Z,163.12
2022-07-29T09:12:56.946Z,163.12
2022-07-29T09:13:56.924Z,163.12
2022-07-29T09:14:56.935Z,157.50
2022-07-29T09:15:56.942Z,157.50
2022-07-29T09:16:56.961Z,157.50
2022-07-29T09:17:56.874Z,163.12
2022-07-29T09:18:56.872Z,168.75
2022-07-29T09:19:56.852Z,174.38
2022-07-29T09:20:56.889Z,185.62
2022-07-29T09:21:56.832Z,191.25
2022-07-29T09:22:56.836Z,202.50
2022-07-29T09:23:56.794Z,219.38
2022-07-29T09:24:56.801Z,236.25
2022-07-29T09:25:56.783Z,258.75
2022-07-29T09:26:56.916Z,275.62
2022-07-29T09:27:56.747Z,303.75
2022-07-29T09:28:56.754Z,331.88
2022-07-29T09:29:56.735Z,360.00
2022-07-29T09:30:56.731Z,376.88
2022-07-29T09:31:56.750Z,393.75
2022-07-29T09:32:56.694Z,410.62
2022-07-29T09:33:56.692Z,393.75
2022-07-29T09:34:58.486Z,365.62
2022-07-29T09:35:57.148Z,337.50
2022-07-29T09:36:57.095Z,309.38
2022-07-29T09:37:56.614Z,286.88
2022-07-29T09:38:56.604Z,275.62
2022-07-29T09:39:56.583Z,264.38
2022-07-29T09:40:56.583Z,264.38
2022-07-29T09:41:56.574Z,264.38
2022-07-29T09:42:56.561Z,264.38
2022-07-29T09:43:56.534Z,264.38
2022-07-29T09:44:56.525Z,264.38
2022-07-29T09:45:56.513Z,264.38
2022-07-29T09:46:56.858Z,264.38
2022-07-29T09:47:56.511Z,264.38
2022-07-29T09:48:56.528Z,258.75
2022-07-29T09:49:56.455Z,258.75
2022-07-29T09:50:56.463Z,258.75
2022-07-29T09:51:56.444Z,258.75
2022-07-29T09:52:56.422Z,253.12
2022-07-29T09:53:56.414Z,247.50
2022-07-29T09:54:56.395Z,241.88
2022-07-29T09:55:56.384Z,236.25
2022-07-29T09:56:56.639Z,236.25
2022-07-29T09:57:56.447Z,236.25
2022-07-29T09:58:56.334Z,230.62
2022-07-29T09:59:56.325Z,225.00
2022-07-29T10:00:56.360Z,219.38
2022-07-29T10:01:56.570Z,208.12
2022-07-29T10:02:56.314Z,196.88
2022-07-29T10:03:56.274Z,191.25
2022-07-29T10:04:56.256Z,180.00
2022-07-29T10:05:56.257Z,168.75
2022-07-29T10:07:03.539Z,163.12
2022-07-29T10:07:57.584Z,163.12
2022-07-29T10:08:56.224Z,163.12
2022-07-29T10:09:56.223Z,163.12
2022-07-29T10:10:56.197Z,168.75
2022-07-29T10:11:56.185Z,174.38
2022-07-29T10:12:56.155Z,180.00
2022-07-29T10:13:56.144Z,185.62
2022-07-29T10:14:56.125Z,185.62
2022-07-29T10:15:56.170Z,196.88
2022-07-29T10:16:56.104Z,202.50
2022-07-29T10:17:56.085Z,208.12
2022-07-29T10:18:56.075Z,208.12
2022-07-29T10:19:56.068Z,213.75
2022-07-29T10:20:56.046Z,208.12
2022-07-29T10:21:58.126Z,202.50
2022-07-29T10:22:56.024Z,196.88
2022-07-29T10:23:56.015Z,191.25
2022-07-29T10:24:57.001Z,191.25
2022-07-29T10:25:55.996Z,185.62
2022-07-29T10:26:55.986Z,180.00
2022-07-29T10:27:55.991Z,174.38
2022-07-29T10:28:55.947Z,168.75
2022-07-29T10:29:55.937Z,168.75
2022-07-29T10:30:55.947Z,157.50
2022-07-29T10:31:56.181Z,151.88
2022-07-29T10:32:55.921Z,146.25
2022-07-29T10:33:55.901Z,140.62
2022-07-29T10:34:55.865Z,140.62
2022-07-29T10:35:55.865Z,135.00
2022-07-29T10:36:55.856Z,135.00
2022-07-29T10:37:55.836Z,129.38
2022-07-29T10:38:55.815Z,129.38
2022-07-29T10:39:55.806Z,123.75
2022-07-29T10:40:57.275Z,123.75
2022-07-29T10:41:55.969Z,118.12
2022-07-29T10:42:55.768Z,118.12
2022-07-29T10:44:52.188Z,118.12
2022-07-29T10:45:52.620Z,118.12
2022-07-29T10:46:52.303Z,118.12
2022-07-29T10:47:52.149Z,118.12
2022-07-29T10:48:52.157Z,112.50
2022-07-29T10:49:52.127Z,106.88
2022-07-29T10:50:52.118Z,106.88
2022-07-29T10:51:52.109Z,101.25
2022-07-29T10:52:52.078Z,101.25
2022-07-29T10:53:52.072Z,101.25
2022-07-29T10:54:52.049Z,101.25
2022-07-29T10:55:52.049Z,101.25
2022-07-29T10:56:52.055Z,101.25
2022-07-29T10:57:53.926Z,106.88
2022-07-29T10:58:52.723Z,106.88
2022-07-29T10:59:53.034Z,106.88
2022-07-29T11:00:51.972Z,106.88
2022-07-29T11:01:52.709Z,106.88
2022-07-29T11:02:52.041Z,106.88
2022-07-29T11:03:52.341Z,101.25
2022-07-29T11:04:51.927Z,101.25
2022-07-29T11:05:51.917Z,101.25
2022-07-29T11:06:51.909Z,101.25
2022-07-29T11:07:51.888Z,101.25
2022-07-29T11:08:51.870Z,95.62
2022-07-29T11:09:51.873Z,95.62
2022-07-29T11:10:51.849Z,90.00
2022-07-29T11:11:51.863Z,90.00
2022-07-29T11:12:51.821Z,84.38
2022-07-29T11:13:52.374Z,84.38
2022-07-29T11:14:51.789Z,84.38
2022-07-29T11:15:51.778Z,78.75
2022-07-29T11:16:51.779Z,78.75
2022-07-29T11:17:53.064Z,78.75
2022-07-29T11:18:51.775Z,78.75
2022-07-29T11:19:52.271Z,73.12
2022-07-29T11:20:51.718Z,73.12
2022-07-29T11:21:55.079Z,73.12
2022-07-29T11:22:51.678Z,67.50
2022-07-29T11:23:51.679Z,67.50
2022-07-29T11:24:51.697Z,67.50
2022-07-29T11:25:52.389Z,61.88
2022-07-29T11:26:51.649Z,61.88
2022-07-29T11:27:51.629Z,61.88
2022-07-29T11:28:51.608Z,61.88
2022-07-29T11:29:51.603Z,61.88
2022-07-29T11:30:51.579Z,61.88
2022-07-29T11:31:51.568Z,67.50
2022-07-29T11:32:51.568Z,67.50
2022-07-29T11:33:56.125Z,67.50
2022-07-29T11:34:52.526Z,67.50
2022-07-29T11:36:00.765Z,73.12
2022-07-29T11:36:52.507Z,73.12
2022-07-29T11:37:52.780Z,78.75
2022-07-29T11:38:52.469Z,78.75
2022-07-29T11:39:51.531Z,84.38
2022-07-29T11:40:51.447Z,90.00
2022-07-29T11:41:51.438Z,95.62
2022-07-29T11:42:51.888Z,101.25
2022-07-29T11:43:51.408Z,106.88
2022-07-29T11:44:51.394Z,106.88
2022-07-29T11:45:51.413Z,112.50
2022-07-29T11:46:51.367Z,112.50
2022-07-29T11:47:51.431Z,118.12
2022-07-29T11:48:52.061Z,118.12
2022-07-29T11:49:51.329Z,118.12
2022-07-29T11:50:51.308Z,123.75
2022-07-29T11:51:51.307Z,123.75
2022-07-29T11:52:51.307Z,123.75
2022-07-29T11:53:52.461Z,123.75
2022-07-29T11:54:58.389Z,118.12
2022-07-29T11:55:52.248Z,112.50
2022-07-29T11:56:51.230Z,112.50
2022-07-29T11:58:03.760Z,106.88
2022-07-29T11:58:52.208Z,112.50
2022-07-29T11:59:51.196Z,112.50
2022-07-29T12:00:51.179Z,112.50
2022-07-29T12:01:51.169Z,112.50
2022-07-29T12:02:51.159Z,118.12
2022-07-29T12:03:51.220Z,123.75
2022-07-29T12:04:51.149Z,129.38
2022-07-29T12:06:52.098Z,146.25
2022-07-29T12:07:03.218Z,135.00
2022-07-29T12:07:51.100Z,151.88
2022-07-29T12:08:51.070Z,168.75
2022-07-29T12:09:51.067Z,180.00
2022-07-29T12:10:51.047Z,191.25
2022-07-29T12:11:51.040Z,202.50
2022-07-29T12:12:51.054Z,213.75
2022-07-29T12:13:51.018Z,230.62
2022-07-29T12:14:50.988Z,236.25
2022-07-29T12:15:51.017Z,241.88
2022-07-29T12:16:51.054Z,236.25
2022-07-29T12:17:50.978Z,236.25
2022-07-29T12:18:50.939Z,241.88
2022-07-29T12:19:51.038Z,247.50
2022-07-29T12:20:50.919Z,258.75
2022-07-29T12:21:56.293Z,275.62
2022-07-29T12:22:51.909Z,286.88
2022-07-29T12:23:50.879Z,303.75
2022-07-29T12:24:50.861Z,326.25
2022-07-29T12:25:51.860Z,343.12
2022-07-29T12:26:50.840Z,354.38
2022-07-29T12:27:50.843Z,360.00
2022-07-29T12:28:50.809Z,365.62
2022-07-29T12:29:50.800Z,365.62
2022-07-29T12:30:51.624Z,365.62
2022-07-29T12:31:50.808Z,360.00
2022-07-29T12:32:50.761Z,354.38
2022-07-29T12:33:50.772Z,348.75
2022-07-29T12:34:50.733Z,343.12
2022-07-29T12:36:06.263Z,337.50
2022-07-29T12:36:51.710Z,331.88
2022-07-29T12:37:50.702Z,331.88
2022-07-29T12:38:50.693Z,331.88
2022-07-29T12:39:50.715Z,331.88
2022-07-29T12:40:50.652Z,337.50
2022-07-29T12:41:50.653Z,343.12
2022-07-29T12:42:50.631Z,348.75
2022-07-29T12:43:50.622Z,354.38
2022-07-29T12:44:50.598Z,354.38
2022-07-29T12:45:50.591Z,348.75
2022-07-29T12:46:50.613Z,354.38
2022-07-29T12:47:50.561Z,348.75
2022-07-29T12:48:50.635Z,348.75
2022-07-29T12:49:50.546Z,348.75
2022-07-29T12:50:50.520Z,348.75
2022-07-29T12:51:50.510Z,348.75
2022-07-29T12:52:50.491Z,348.75
2022-07-29T12:53:50.499Z,348.75
2022-07-29T12:54:50.501Z,348.75
2022-07-29T12:55:50.451Z,354.38
2022-07-29T12:56:50.441Z,365.62
2022-07-29T12:57:50.433Z,382.50
2022-07-29T12:58:51.457Z,399.38
2022-07-29T12:59:50.402Z,410.62
2022-07-29T13:00:50.432Z,433.12
2022-07-29T13:01:50.573Z,450.00
2022-07-29T13:02:50.405Z,466.88
2022-07-29T13:03:56.917Z,483.75
2022-07-29T13:04:51.333Z,506.25
2022-07-29T13:05:50.332Z,528.75
2022-07-29T13:06:51.071Z,562.50
2022-07-29T13:07:55.111Z,607.50
2022-07-29T13:08:51.293Z,770.62
2022-07-29T13:09:50.273Z,832.50
2022-07-29T13:10:50.253Z,1293.75
2022-07-29T13:11:50.250Z,1400.62
2022-07-29T13:12:50.232Z,1299.38
2022-07-29T13:13:50.234Z,1141.88
2022-07-29T13:14:51.204Z,894.38
2022-07-29T13:15:50.194Z,1203.75
2022-07-29T13:16:50.212Z,945.00
2022-07-29T13:17:50.172Z,2874.38
2022-07-29T13:18:50.164Z,2874.38
2022-07-29T13:19:50.143Z,697.50
2022-07-29T13:20:50.131Z,2874.38
2022-07-29T13:21:50.123Z,2874.38
2022-07-29T13:22:50.103Z,691.88
2022-07-29T13:23:50.104Z,1164.38
2022-07-29T13:24:50.074Z,1147.50
2022-07-29T13:25:50.065Z,630.00
2022-07-29T13:26:50.053Z,680.62
2022-07-29T13:27:50.054Z,826.88
2022-07-29T13:28:50.035Z,877.50
2022-07-29T13:29:50.016Z,838.12
2022-07-29T13:30:50.026Z,787.50
2022-07-29T13:31:49.998Z,770.62
2022-07-29T13:32:49.976Z,776.25
2022-07-29T13:33:49.975Z,781.88
2022-07-29T13:34:49.957Z,787.50
2022-07-29T13:35:49.946Z,855.00
2022-07-29T13:36:49.926Z,995.62
2022-07-29T13:37:49.917Z,1113.75
2022-07-29T13:38:49.918Z,1164.38
2022-07-29T13:39:51.292Z,1237.50
2022-07-29T13:40:49.877Z,1186.88
2022-07-29T13:41:49.867Z,1293.75
2022-07-29T13:42:49.858Z,922.50
2022-07-29T13:43:50.125Z,1181.25
2022-07-29T13:44:49.848Z,1254.38
2022-07-29T13:45:49.855Z,770.62
2022-07-29T13:46:49.800Z,894.38
2022-07-29T13:47:49.788Z,714.38
2022-07-29T13:48:49.788Z,1372.50
2022-07-29T13:49:49.787Z,1209.38
2022-07-29T13:50:49.748Z,1147.50
2022-07-29T13:51:49.770Z,1282.50
2022-07-29T13:52:49.770Z,1248.75
2022-07-29T13:53:49.719Z,1181.25
2022-07-29T13:54:49.709Z,1153.12
2022-07-29T13:55:49.689Z,1170.00
2022-07-29T13:56:49.679Z,1147.50
2022-07-29T13:57:49.672Z,1175.62
2022-07-29T13:58:49.660Z,1063.12
2022-07-29T13:59:53.920Z,1147.50
2022-07-29T14:00:49.717Z,1141.88
2022-07-29T14:01:49.620Z,1102.50
2022-07-29T14:02:49.601Z,573.75
2022-07-29T14:03:49.590Z,939.38
2022-07-29T14:04:49.626Z,1141.88
2022-07-29T14:05:49.571Z,568.12
2022-07-29T14:06:49.552Z,472.50
2022-07-29T14:07:49.541Z,405.00
2022-07-29T14:08:49.521Z,382.50
2022-07-29T14:09:49.531Z,365.62
2022-07-29T14:10:49.503Z,371.25
2022-07-29T14:11:49.493Z,348.75
2022-07-29T14:12:49.509Z,354.38
2022-07-29T14:13:49.471Z,360.00
2022-07-29T14:14:49.470Z,371.25
2022-07-29T14:15:49.442Z,382.50
2022-07-29T14:16:52.359Z,393.75
2022-07-29T14:17:49.412Z,410.62
2022-07-29T14:18:49.462Z,427.50
2022-07-29T14:19:49.401Z,444.38
2022-07-29T14:20:49.373Z,466.88
2022-07-29T14:21:49.363Z,506.25
2022-07-29T14:22:49.343Z,551.25
2022-07-29T14:23:49.347Z,579.38
2022-07-29T14:24:49.335Z,596.25
2022-07-29T14:25:49.609Z,641.25
2022-07-29T14:26:49.327Z,669.38
2022-07-29T14:27:49.283Z,663.75
2022-07-29T14:28:49.275Z,742.50
2022-07-29T14:29:49.281Z,669.38
2022-07-29T14:30:49.246Z,731.25
2022-07-29T14:31:49.295Z,1096.88
2022-07-29T14:32:49.223Z,1147.50
2022-07-29T14:33:49.483Z,1164.38
2022-07-29T14:34:49.213Z,1102.50
2022-07-29T14:35:49.186Z,1035.00
2022-07-29T14:36:49.184Z,939.38
2022-07-29T14:37:49.165Z,905.62
2022-07-29T14:38:49.147Z,697.50
2022-07-29T14:39:49.146Z,753.75
2022-07-29T14:40:50.865Z,866.25
2022-07-29T14:41:49.114Z,838.12
2022-07-29T14:42:49.094Z,933.75
2022-07-29T14:43:49.086Z,990.00
2022-07-29T14:44:49.076Z,978.75
2022-07-29T14:45:49.122Z,1012.50
2022-07-29T14:46:49.483Z,1018.12
2022-07-29T14:47:49.039Z,826.88
2022-07-29T14:48:49.056Z,956.25
2022-07-29T14:49:49.025Z,1063.12
2022-07-29T14:50:48.996Z,1018.12
2022-07-29T14:51:48.987Z,1158.75
2022-07-29T14:52:48.967Z,1231.88
2022-07-29T14:53:48.957Z,1153.12
2022-07-29T14:54:48.957Z,1147.50
2022-07-29T14:55:48.938Z,1153.12
2022-07-29T14:56:48.918Z,1046.25
2022-07-29T14:57:48.909Z,1012.50
2022-07-29T14:58:51.713Z,990.00
2022-07-29T14:59:48.899Z,770.62
2022-07-29T15:00:48.944Z,905.62
2022-07-29T15:01:48.859Z,793.12
2022-07-29T15:03:04.216Z,804.38
2022-07-29T15:03:49.837Z,635.62
2022-07-29T15:04:48.821Z,691.88
2022-07-29T15:05:48.819Z,922.50
2022-07-29T15:06:48.791Z,1175.62
2022-07-29T15:07:48.779Z,1215.00
2022-07-29T15:08:48.767Z,1321.88
2022-07-29T15:09:49.776Z,1186.88
2022-07-29T15:10:48.760Z,866.25
2022-07-29T15:11:48.733Z,961.88
2022-07-29T15:12:48.720Z,956.25
2022-07-29T15:13:48.712Z,1153.12
2022-07-29T15:14:48.694Z,1254.38
2022-07-29T15:15:48.698Z,2874.38
2022-07-29T15:16:48.719Z,1372.50
2022-07-29T15:17:48.661Z,1372.50
2022-07-29T15:18:48.641Z,1417.50
2022-07-29T15:19:48.634Z,1046.25
2022-07-29T15:20:48.621Z,1051.88
2022-07-29T15:21:49.195Z,1288.12
2022-07-29T15:22:48.592Z,1271.25
2022-07-29T15:23:48.585Z,1310.62
2022-07-29T15:24:48.573Z,1125.00
2022-07-29T15:25:48.572Z,1282.50
2022-07-29T15:26:48.544Z,1147.50
2022-07-29T15:27:49.702Z,1220.62
2022-07-29T15:28:48.523Z,1327.50
2022-07-29T15:29:48.513Z,1333.12
2022-07-29T15:30:48.512Z,2874.38
2022-07-29T15:31:48.605Z,1389.38
2022-07-29T15:32:48.473Z,1231.88
2022-07-29T15:33:49.466Z,1338.75
2022-07-29T15:34:48.453Z,1153.12
2022-07-29T15:35:48.445Z,1327.50
2022-07-29T15:36:53.078Z,1327.50
2022-07-29T15:37:49.684Z,1293.75
2022-07-29T15:38:48.395Z,1231.88
2022-07-29T15:39:48.384Z,990.00
2022-07-29T15:40:48.382Z,1035.00
2022-07-29T15:41:48.366Z,1080.00
2022-07-29T15:42:48.343Z,1136.25
2022-07-29T15:43:48.334Z,1254.38
2022-07-29T15:44:48.316Z,1186.88
2022-07-29T15:45:48.338Z,1051.88
2022-07-29T15:46:48.295Z,1203.75
2022-07-29T15:47:48.286Z,1147.50
2022-07-29T15:48:48.422Z,1192.50
2022-07-29T15:49:49.464Z,1096.88
2022-07-29T15:50:48.256Z,956.25
2022-07-29T15:51:48.237Z,911.25
2022-07-29T15:52:48.216Z,984.38
2022-07-29T15:53:53.226Z,883.12
2022-07-29T15:54:49.188Z,900.00
2022-07-29T15:55:48.197Z,916.88
2022-07-29T15:56:48.187Z,866.25
2022-07-29T15:57:48.157Z,877.50
2022-07-29T15:58:48.215Z,855.00
2022-07-29T15:59:48.136Z,860.62
2022-07-29T16:00:48.188Z,736.88
2022-07-29T16:01:48.109Z,860.62
2022-07-29T16:02:48.089Z,815.62
2022-07-29T16:03:48.116Z,900.00
2022-07-29T16:04:48.067Z,1029.38
2022-07-29T16:05:48.068Z,1057.50
2022-07-29T16:06:48.039Z,1063.12
2022-07-29T16:07:48.037Z,1023.75
2022-07-29T16:08:48.019Z,1001.25
2022-07-29T16:09:52.843Z,967.50
2022-07-29T16:10:49.009Z,708.75
2022-07-29T16:11:47.989Z,337.50
2022-07-29T16:12:47.970Z,326.25
2022-07-29T16:13:47.961Z,253.12
2022-07-29T16:14:48.008Z,247.50
2022-07-29T16:16:02.366Z,241.88
2022-07-29T16:16:48.954Z,230.62
2022-07-29T16:17:47.910Z,225.00
2022-07-29T16:18:47.894Z,219.38
2022-07-29T16:19:47.881Z,213.75
2022-07-29T16:20:47.888Z,208.12
2022-07-29T16:21:47.871Z,208.12
2022-07-29T16:22:47.843Z,202.50
2022-07-29T16:23:47.832Z,202.50
2022-07-29T16:24:47.820Z,202.50
2022-07-29T16:25:59.800Z,208.12
2022-07-29T16:26:48.802Z,219.38
2022-07-29T16:27:47.781Z,230.62
2022-07-29T16:28:47.773Z,247.50
2022-07-29T16:29:47.752Z,247.50
2022-07-29T16:30:47.743Z,253.12
2022-07-29T16:31:47.816Z,281.25
2022-07-29T16:32:47.712Z,292.50
2022-07-29T16:33:55.118Z,360.00
2022-07-29T16:34:48.692Z,708.75
2022-07-29T16:35:47.681Z,483.75
2022-07-29T16:36:48.052Z,444.38
2022-07-29T16:37:47.654Z,461.25
2022-07-29T16:38:47.677Z,455.62
2022-07-29T16:39:47.633Z,793.12
2022-07-29T16:40:47.613Z,765.00
2022-07-29T16:41:47.615Z,765.00
2022-07-29T16:42:47.831Z,714.38
2022-07-29T16:43:47.574Z,821.25
2022-07-29T16:44:47.565Z,765.00
2022-07-29T16:45:47.572Z,545.62
2022-07-29T16:46:47.544Z,714.38
2022-07-29T16:47:47.525Z,742.50
2022-07-29T16:48:47.561Z,748.12
2022-07-29T16:49:47.497Z,759.38
2022-07-29T16:50:47.486Z,753.75
2022-07-29T16:51:47.485Z,731.25
2022-07-29T16:52:47.468Z,697.50
2022-07-29T16:53:49.809Z,675.00
2022-07-29T16:54:47.434Z,697.50
2022-07-29T16:55:47.417Z,697.50
2022-07-29T16:56:47.415Z,675.00
2022-07-29T16:57:47.386Z,663.75
2022-07-29T16:58:47.384Z,714.38
2022-07-29T16:59:47.367Z,691.88
2022-07-29T17:00:47.391Z,675.00
2022-07-29T17:01:47.385Z,646.88
2022-07-29T17:02:47.336Z,635.62
2022-07-29T17:03:47.326Z,635.62